الصفحة الرئيسية
METAR-TAF:

METAR-TAF

مطار :

Foz do Iguaçu, بارانا, البرازيل

دائرة عرض: 25-31S, خط طول: 054-35W, ارتفاع: 180 متر

مراقبة الطقس الحالي

تاريخ ووقت الإصدار 31 دقيقة قبل الساعة 03:00UTC
ريح 5 عقدة من الشرق
درجة الحرارة 27°درجة مئوية
الرطوبة 94%
ضغط 1010 hPa
الرؤية 10 كم أو أكثر
الغيوم لا تقل 1500 م ولا وجود لمزنة ركامية السحاب الأسود

METAR: SBFI 300300Z 09005KT CAVOK 27/26 Q1010

زمن: 01:31 (03:31 UTC)

توقعات

تاريخ ووقت الإصدار 6ساعات و 31 دقيقة قبل الساعة 21:00UTC
التوقعات صالحة من30 الساعة 00 UTC إلى 30 الساعة 24 UTC
ريح 7 عقدة من الشرق
الرؤية 10 كم أو أكثر
الغيوم لا تقل 1500 م ولا وجود لمزنة ركامية السحاب الأسود
أصبح
من 30 الساعة 13 UTC إلى 30 الساعة 15 UTC
ريح 9 عقدة من الشمال
الرؤية 10 كم أو أكثر
غيوم مفككة على ارتفاع 3000 قدم
أصبح
من 30 الساعة 22 UTC إلى 30 الساعة 24 UTC
ريح 5 عقدة من الشرق/الجنوب الشرقي
الرؤية 10 كم أو أكثر
الغيوم لا تقل 1500 م ولا وجود لمزنة ركامية السحاب الأسود

TAF: SBFI 292100Z 3000/3024 08007KT CAVOK TN22/3008Z TX32/3018Z BECMG 3013/3015 01009KT 9999 BKN030 BECMG 3022/3024 11005KT CAVOK RMK PDW

أرصاد الطقس والتوقعات من أكثر من 4000 مطار (تقارير الطقس للمطار METAR والتنبؤ بالطقس بالمطارTAF).

المحطات المتاحة هي النقط الصفراء والحمراء على الخريطة.

حرك المؤشر فوق النقطة لمعرفة اسم المحطة.

ثم انقر لمعرفة أرصاد وتوقعات الطقس.

لتغيير الخارطة: اضغط على الأزرار الخضراء مع رمز الصليب الأسود للتكبير. على الزر الأخضر مع شرطة للتصغير، أو على الأسهم الخضراء للخرائط المجاورة.


METAR-TAF: